Time;durP1;ratioP1;P1;durP2;ratioP2;P2;SDS_P1;SDS_P2;PMS_P1;PMS_P2;Temp;Humidity;BMP_temperature;BMP_pressure;BME280_temperature;BME280_humidity;BME280_pressure;Samples;Min_cycle;Max_cycle;Signal;HPM_P1;HPM_P2
2024/01/04 00:01:19;;;;;;;4.00;2.25;;;;;;;7.88;53.59;93149.31;5005007;28;20037;-75
2024/01/04 00:03:45;;;;;;;10.15;5.95;;;;;;;7.60;55.04;93154.88;5001231;28;20442;-75
2024/01/04 00:06:10;;;;;;;6.80;3.67;;;;;;;7.48;54.63;93162.66;5001428;28;20061;-76
2024/01/04 00:08:36;;;;;;;2.03;1.40;;;;;;;7.62;53.68;93141.34;4995186;28;20178;-76
2024/01/04 00:11:06;;;;;;;2.25;1.60;;;;;;;7.76;53.05;93135.94;5004934;28;20045;-76
2024/01/04 00:13:32;;;;;;;3.63;1.40;;;;;;;7.73;52.65;93114.28;5009100;28;20257;-76
2024/01/04 00:15:57;;;;;;;1.13;1.02;;;;;;;8.10;51.84;93143.84;5002310;28;20489;-77
2024/01/04 00:18:23;;;;;;;2.35;1.58;;;;;;;8.00;51.92;93137.00;5012741;28;20545;-75
2024/01/04 00:20:48;;;;;;;3.08;1.92;;;;;;;8.11;52.00;93138.25;5017127;28;20577;-76
2024/01/04 00:23:14;;;;;;;5.38;1.45;;;;;;;8.15;51.90;93133.88;5009723;28;20049;-77
2024/01/04 00:25:39;;;;;;;1.10;1.02;;;;;;;8.11;52.00;93129.53;5010937;28;20614;-75
2024/01/04 00:28:05;;;;;;;1.30;1.00;;;;;;;8.09;51.83;93129.06;5015498;28;20576;-76
2024/01/04 00:30:30;;;;;;;2.17;1.00;;;;;;;8.11;51.79;93142.78;4992041;28;20053;-77
2024/01/04 00:32:56;;;;;;;1.42;1.10;;;;;;;8.07;52.06;93121.41;4990602;28;20034;-75
2024/01/04 00:35:22;;;;;;;1.52;1.00;;;;;;;8.19;52.03;93123.44;4996916;28;20040;-76
2024/01/04 00:37:48;;;;;;;1.55;1.10;;;;;;;8.27;51.93;93122.63;4990622;28;20045;-76
2024/01/04 00:40:14;;;;;;;2.05;1.20;;;;;;;8.24;51.84;93131.22;4995269;28;20587;-76
2024/01/04 00:42:39;;;;;;;3.42;1.38;;;;;;;8.37;51.41;93130.25;4997720;28;20042;-76
2024/01/04 00:45:05;;;;;;;1.63;0.90;;;;;;;8.34;51.28;93122.94;4992573;28;20521;-78
2024/01/04 00:47:30;;;;;;;1.73;0.90;;;;;;;8.34;51.40;93119.50;4994268;28;20053;-77
2024/01/04 00:49:55;;;;;;;1.23;0.88;;;;;;;8.30;51.62;93135.25;4999865;28;20052;-78
2024/01/04 00:52:21;;;;;;;2.22;1.00;;;;;;;8.26;51.51;93113.16;4994308;28;20527;-78
2024/01/04 00:54:46;;;;;;;1.63;0.90;;;;;;;8.39;51.51;93132.59;4996144;28;20626;-77
2024/01/04 00:57:12;;;;;;;2.47;1.10;;;;;;;8.12;51.38;93112.53;4992323;28;20051;-77
2024/01/04 00:59:37;;;;;;;1.42;0.90;;;;;;;8.30;51.69;93142.44;4996054;28;20573;-76
2024/01/04 01:02:03;;;;;;;1.40;1.00;;;;;;;8.45;51.48;93171.88;4996769;28;20045;-77
2024/01/04 01:04:29;;;;;;;5.03;3.72;;;;;;;7.92;53.64;93168.78;4997806;28;20125;-76
2024/01/04 01:06:54;;;;;;;6.65;5.30;;;;;;;7.46;55.37;93159.53;4992332;28;20121;-77
2024/01/04 01:09:20;;;;;;;7.60;5.45;;;;;;;7.78;54.74;93160.22;4996668;28;20034;-76
2024/01/04 01:11:45;;;;;;;9.07;5.72;;;;;;;7.65;54.53;93132.78;4992602;28;20461;-76
2024/01/04 01:14:11;;;;;;;8.82;5.35;;;;;;;7.46;55.93;93159.53;4981238;28;20052;-78
2024/01/04 01:16:36;;;;;;;6.47;5.20;;;;;;;7.48;56.16;93146.78;4972185;28;20034;-77
2024/01/04 01:19:02;;;;;;;12.00;5.18;;;;;;;7.16;56.28;93118.06;4997934;28;20144;-77
2024/01/04 01:21:28;;;;;;;7.05;4.78;;;;;;;7.56;56.07;93161.88;4995992;28;20175;-77
2024/01/04 01:23:53;;;;;;;9.60;5.40;;;;;;;6.70;57.49;93121.97;4994473;28;20053;-77
2024/01/04 01:26:18;;;;;;;12.27;6.40;;;;;;;6.91;58.03;93169.78;4991995;28;20645;-79
2024/01/04 01:28:44;;;;;;;10.77;5.85;;;;;;;6.88;58.12;93153.75;4995475;28;20076;-75
2024/01/04 01:31:09;;;;;;;11.65;4.93;;;;;;;7.36;56.77;93157.16;4989752;28;20038;-75
2024/01/04 01:33:35;;;;;;;9.88;5.20;;;;;;;7.39;55.47;93126.66;4990150;28;20029;-75
2024/01/04 01:36:02;;;;;;;10.45;6.30;;;;;;;6.89;57.15;93139.47;4995481;28;20048;-75
2024/01/04 01:38:28;;;;;;;7.70;5.18;;;;;;;6.59;59.03;93173.53;4995356;28;20046;-77
2024/01/04 01:40:53;;;;;;;8.02;5.28;;;;;;;6.63;59.16;93149.91;4997997;28;20096;-76
2024/01/04 01:43:18;;;;;;;7.30;5.78;;;;;;;6.24;60.05;93145.34;4994428;28;20091;-75
2024/01/04 01:45:45;;;;;;;7.55;5.93;;;;;;;6.63;60.13;93158.63;5000693;28;20036;-75
2024/01/04 01:48:13;;;;;;;8.15;5.45;;;;;;;5.89;62.69;93166.22;4992888;28;20030;-75
2024/01/04 01:50:39;;;;;;;8.50;5.82;;;;;;;5.86;63.11;93172.09;4993103;28;20593;-75
2024/01/04 01:53:04;;;;;;;10.15;5.13;;;;;;;5.81;63.12;93132.63;4991728;28;20041;-76
2024/01/04 01:55:30;;;;;;;9.05;4.88;;;;;;;6.05;63.47;93194.91;4993711;28;20045;-76
2024/01/04 01:57:56;;;;;;;8.25;5.35;;;;;;;5.83;63.60;93182.44;4997428;28;20569;-75
2024/01/04 02:00:22;;;;;;;7.90;5.50;;;;;;;5.65;65.09;93186.81;4996385;28;20119;-79
2024/01/04 02:02:49;;;;;;;9.25;6.22;;;;;;;5.45;65.61;93160.88;4999173;28;20045;-77
2024/01/04 02:05:15;;;;;;;7.35;6.10;;;;;;;5.63;65.15;93178.41;5012047;28;20116;-75
2024/01/04 02:07:43;;;;;;;9.45;5.70;;;;;;;5.34;66.21;93176.09;4997911;28;20044;-75
2024/01/04 02:10:09;;;;;;;12.77;6.93;;;;;;;5.72;63.75;93120.44;4991470;28;20067;-76
2024/01/04 02:12:34;;;;;;;10.40;6.13;;;;;;;6.18;62.16;93159.75;5002264;28;29188;-77
2024/01/04 02:14:59;;;;;;;9.77;5.57;;;;;;;6.05;62.92;93168.50;5001402;28;20056;-76
2024/01/04 02:17:25;;;;;;;9.35;5.53;;;;;;;6.00;63.35;93164.91;4994232;28;20465;-76
2024/01/04 02:19:52;;;;;;;9.60;5.70;;;;;;;6.24;61.89;93166.50;4995944;28;20056;-76
2024/01/04 02:22:17;;;;;;;11.23;5.93;;;;;;;6.09;62.68;93161.53;4992343;28;20033;-76
2024/01/04 02:24:46;;;;;;;8.40;5.13;;;;;;;5.47;64.01;93154.22;4995607;28;20651;-77
2024/01/04 02:27:14;;;;;;;11.88;6.28;;;;;;;5.01;67.65;93178.09;4992013;28;20060;-76
2024/01/04 02:29:39;;;;;;;10.07;5.85;;;;;;;5.33;66.43;93169.31;4997530;28;20057;-75
2024/01/04 02:32:05;;;;;;;11.20;6.60;;;;;;;5.37;65.60;93146.53;4994713;28;20049;-76
2024/01/04 02:34:31;;;;;;;10.95;5.35;;;;;;;5.29;66.11;93147.22;5000547;28;20033;-76
2024/01/04 02:36:59;;;;;;;8.48;6.43;;;;;;;5.16;67.41;93134.84;5015932;28;20025;-75
2024/01/04 02:39:25;;;;;;;8.80;5.72;;;;;;;5.25;66.85;93122.53;5016765;28;20041;-75
2024/01/04 02:41:50;;;;;;;6.63;4.75;;;;;;;5.84;64.77;93134.66;5015152;28;20049;-75
2024/01/04 02:44:15;;;;;;;6.07;4.75;;;;;;;5.81;63.96;93106.25;5009334;28;20061;-77
2024/01/04 02:46:41;;;;;;;6.90;4.95;;;;;;;5.62;64.60;93113.56;5011615;28;20953;-77
2024/01/04 02:49:06;;;;;;;7.13;5.22;;;;;;;5.71;64.05;93106.47;5001946;28;20416;-77
2024/01/04 02:51:32;;;;;;;8.15;5.60;;;;;;;5.84;62.77;93068.69;4997133;28;20525;-75
2024/01/04 02:53:57;;;;;;;6.55;5.18;;;;;;;6.24;61.85;93087.28;5014893;28;20105;-76
2024/01/04 02:56:22;;;;;;;10.93;5.35;;;;;;;6.31;60.59;93098.19;5017777;28;20047;-78
2024/01/04 02:58:48;;;;;;;7.78;4.75;;;;;;;5.92;61.95;93062.69;5013305;28;20037;-76
2024/01/04 03:01:23;;;;;;;7.05;4.50;;;;;;;5.29;64.46;93088.44;4992765;28;20474;-78
2024/01/04 03:03:51;;;;;;;;;;;;;;;5.62;64.27;93113.56;4997195;28;20021;-77
2024/01/04 03:06:24;;;;;;;7.63;3.72;;;;;;;5.14;65.08;93079.78;4999525;28;19924;-77
2024/01/04 03:08:49;;;;;;;5.88;4.30;;;;;;;5.37;65.27;93085.09;5015736;28;20033;-78
2024/01/04 03:11:15;;;;;;;7.18;5.13;;;;;;;5.38;65.98;93091.94;5010602;28;20819;-72
2024/01/04 03:13:41;;;;;;;9.00;6.68;;;;;;;4.82;67.28;93079.16;5016825;28;20041;-78
2024/01/04 03:16:06;;;;;;;11.07;5.55;;;;;;;5.33;65.72;93094.69;5015980;28;20035;-77
2024/01/04 03:18:31;;;;;;;6.85;5.68;;;;;;;5.52;64.36;93087.41;5009269;28;20021;-77
2024/01/04 03:20:57;;;;;;;6.25;4.57;;;;;;;5.80;63.29;93083.56;4998224;28;20913;-78
2024/01/04 03:23:22;;;;;;;9.35;5.25;;;;;;;6.12;62.03;93116.81;5013928;28;20168;-78
2024/01/04 03:25:47;;;;;;;6.63;4.57;;;;;;;6.29;61.23;93101.13;5014741;28;20065;-76
2024/01/04 03:28:13;;;;;;;8.27;4.68;;;;;;;6.02;60.88;93082.00;5010277;28;20040;-77
2024/01/04 03:30:38;;;;;;;6.75;4.70;;;;;;;6.28;60.35;93080.28;4995964;28;27934;-77
2024/01/04 03:33:04;;;;;;;5.85;4.05;;;;;;;6.65;58.50;93100.22;5014435;28;20044;-78
2024/01/04 03:35:29;;;;;;;10.23;5.25;;;;;;;6.61;58.87;93102.66;5012568;28;20502;-77
2024/01/04 03:37:54;;;;;;;6.07;4.43;;;;;;;6.72;58.45;93108.47;4997913;28;20125;-77
2024/01/04 03:40:20;;;;;;;8.95;4.72;;;;;;;6.66;57.73;93077.97;5013283;28;20045;-77
2024/01/04 03:42:45;;;;;;;6.50;4.47;;;;;;;6.83;57.23;93078.03;5012471;28;20067;-77
2024/01/04 03:45:11;;;;;;;7.85;4.20;;;;;;;7.06;56.76;93097.22;5009072;28;20116;-77
2024/01/04 03:47:36;;;;;;;5.78;4.78;;;;;;;6.94;56.34;93078.53;5017316;28;20647;-77
2024/01/04 03:50:05;;;;;;;5.57;4.60;;;;;;;7.05;56.44;93093.78;5014713;28;20239;-74
2024/01/04 03:52:30;;;;;;;6.43;4.90;;;;;;;5.80;60.15;93077.50;5015082;28;20191;-77
2024/01/04 03:54:55;;;;;;;6.38;5.00;;;;;;;6.42;59.60;93094.97;5016672;28;20031;-76
2024/01/04 03:57:21;;;;;;;8.15;4.57;;;;;;;6.20;58.83;93065.19;5011333;28;20041;-76
2024/01/04 03:59:46;;;;;;;10.70;4.18;;;;;;;5.98;60.83;93101.06;5002960;28;20034;-77
2024/01/04 04:02:12;;;;;;;8.50;4.13;;;;;;;5.89;60.45;93076.47;4992946;28;20613;-77
2024/01/04 04:04:38;;;;;;;5.05;3.50;;;;;;;5.87;59.97;93031.13;5001652;28;20358;-77
2024/01/04 04:07:03;;;;;;;6.00;3.80;;;;;;;6.35;59.46;93083.28;5017840;28;20434;-77
2024/01/04 04:09:28;;;;;;;5.47;3.97;;;;;;;6.60;58.70;93079.22;5014613;28;20455;-77
2024/01/04 04:11:54;;;;;;;5.95;4.07;;;;;;;6.73;58.21;93081.72;5016684;28;20602;-77
2024/01/04 04:14:20;;;;;;;7.38;3.50;;;;;;;6.78;57.84;93060.44;4999846;28;20393;-75
2024/01/04 04:16:45;;;;;;;6.10;3.42;;;;;;;6.46;58.68;93068.72;4997719;28;20427;-77
2024/01/04 04:19:11;;;;;;;5.75;3.72;;;;;;;6.38;59.41;93090.59;5009076;28;20043;-77
2024/01/04 04:21:36;;;;;;;5.70;4.38;;;;;;;6.04;59.58;93074.53;5014501;28;20851;-77
2024/01/04 04:24:02;;;;;;;5.88;4.13;;;;;;;5.43;62.58;93078.66;5007625;28;20033;-76
2024/01/04 04:26:27;;;;;;;7.22;5.15;;;;;;;5.88;61.28;93084.69;5013889;28;20037;-76
2024/01/04 04:28:53;;;;;;;8.55;4.93;;;;;;;6.16;60.46;93082.72;5012683;28;20057;-76
2024/01/04 04:31:19;;;;;;;8.80;5.38;;;;;;;6.34;59.29;93079.88;5018393;28;20046;-75
2024/01/04 04:33:46;;;;;;;4.82;4.00;;;;;;;6.32;58.96;93089.94;5019358;28;20588;-78
2024/01/04 04:36:12;;;;;;;7.03;4.10;;;;;;;6.40;58.67;93059.41;5006016;28;20040;-77
2024/01/04 04:38:38;;;;;;;7.70;4.43;;;;;;;6.55;58.00;93058.22;5000796;28;20040;-77
2024/01/04 04:41:04;;;;;;;5.97;4.07;;;;;;;6.59;57.51;93062.56;5009431;28;20113;-76
2024/01/04 04:43:30;;;;;;;6.70;4.38;;;;;;;6.50;57.79;93061.75;5011357;28;20123;-76
2024/01/04 04:45:56;;;;;;;7.05;4.28;;;;;;;6.72;58.07;93076.75;5020355;28;20032;-76
2024/01/04 04:48:22;;;;;;;6.07;4.00;;;;;;;6.89;57.01;93084.75;4985548;28;20029;-77
2024/01/04 04:50:49;;;;;;;6.68;3.92;;;;;;;5.76;59.81;93053.59;5006296;28;20060;-77
2024/01/04 04:53:14;;;;;;;9.63;4.70;;;;;;;6.11;60.37;93078.34;5013456;28;20064;-77
2024/01/04 04:55:40;;;;;;;8.18;4.22;;;;;;;5.74;62.00;93090.03;5019698;28;20045;-77
2024/01/04 04:58:05;;;;;;;5.13;3.63;;;;;;;6.20;60.01;93091.59;5018234;28;20021;-77
2024/01/04 05:00:31;;;;;;;5.43;3.42;;;;;;;6.23;60.42;93072.50;5008513;28;20056;-77
2024/01/04 05:02:56;;;;;;;12.38;4.70;;;;;;;6.52;58.83;93078.06;5018076;28;20056;-78
2024/01/04 05:05:21;;;;;;;4.68;3.53;;;;;;;6.51;58.46;93070.44;5020847;28;20157;-77
2024/01/04 05:07:47;;;;;;;5.15;3.65;;;;;;;6.63;58.41;93084.66;5000793;28;20407;-76
2024/01/04 05:10:12;;;;;;;8.40;5.38;;;;;;;6.70;57.99;93098.19;5015138;28;20025;-77
2024/01/04 05:12:38;;;;;;;13.02;5.35;;;;;;;6.70;57.60;93078.94;5015547;28;20040;-77
2024/01/04 05:15:04;;;;;;;11.52;6.68;;;;;;;6.86;57.46;93107.25;5002075;28;20047;-77
2024/01/04 05:17:29;;;;;;;9.90;5.80;;;;;;;6.96;56.65;93103.56;5018386;28;20080;-76
2024/01/04 05:19:54;;;;;;;12.13;6.82;;;;;;;7.04;56.17;93104.69;5014911;28;20037;-77
2024/01/04 05:22:20;;;;;;;14.02;7.28;;;;;;;7.03;55.96;93097.84;5001670;28;20525;-77
2024/01/04 05:24:46;;;;;;;7.13;4.43;;;;;;;6.95;55.72;93096.72;4990779;28;20718;-76
2024/01/04 05:27:11;;;;;;;9.02;3.80;;;;;;;7.02;56.00;93093.63;4995502;28;20046;-75
2024/01/04 05:29:37;;;;;;;9.27;5.90;;;;;;;7.17;55.73;93117.78;4979913;28;20120;-75
2024/01/04 05:32:03;;;;;;;9.50;4.93;;;;;;;7.30;55.58;93118.72;5004242;28;20041;-76
2024/01/04 05:34:32;;;;;;;13.15;5.93;;;;;;;7.11;55.71;93095.19;5002283;28;20045;-77
2024/01/04 05:37:00;;;;;;;7.90;4.43;;;;;;;7.09;56.09;93089.44;5017026;28;20033;-77
2024/01/04 05:39:26;;;;;;;9.00;4.70;;;;;;;7.27;55.87;93114.06;5003650;28;20061;-77
2024/01/04 05:41:52;;;;;;;12.00;5.95;;;;;;;6.94;56.26;93074.03;5012744;28;20045;-74
2024/01/04 05:44:17;;;;;;;20.52;8.88;;;;;;;7.07;56.33;93088.19;5014246;28;20108;-78
2024/01/04 05:46:42;;;;;;;20.15;9.27;;;;;;;6.92;56.20;93089.41;5016304;28;20030;-78
2024/01/04 05:49:08;;;;;;;7.18;4.70;;;;;;;6.52;57.37;93080.72;5014087;28;20029;-77
2024/01/04 05:51:34;;;;;;;7.60;4.78;;;;;;;5.89;60.63;93096.81;5014237;28;20033;-78
2024/01/04 05:53:59;;;;;;;7.30;4.95;;;;;;;6.18;59.13;93062.06;5001088;28;20041;-77
2024/01/04 05:56:25;;;;;;;9.40;5.80;;;;;;;6.40;59.25;93109.56;4998107;28;20032;-77
2024/01/04 05:58:50;;;;;;;11.18;6.00;;;;;;;6.68;57.81;93110.16;5019517;28;20045;-79
2024/01/04 06:01:16;;;;;;;7.63;5.70;;;;;;;6.88;57.18;93100.91;5012114;28;20131;-79
2024/01/04 06:03:41;;;;;;;7.95;4.70;;;;;;;6.96;57.16;93103.56;5025567;28;20032;-75
2024/01/04 06:06:07;;;;;;;6.28;4.15;;;;;;;6.86;57.18;93123.13;5013757;28;20072;-75
2024/01/04 06:08:32;;;;;;;4.55;3.75;;;;;;;6.77;56.80;93085.31;5014429;28;20037;-75
2024/01/04 06:10:58;;;;;;;5.85;3.40;;;;;;;7.00;56.67;93109.78;5015948;28;20102;-75
2024/01/04 06:13:26;;;;;;;5.00;4.00;;;;;;;6.96;56.39;93100.91;5001846;28;20041;-75
2024/01/04 06:15:52;;;;;;;8.13;3.60;;;;;;;7.18;56.38;93126.50;5018061;28;20017;-77
2024/01/04 06:18:18;;;;;;;8.88;3.60;;;;;;;7.22;55.62;93119.50;5013545;28;20141;-75
2024/01/04 06:20:44;;;;;;;6.40;3.55;;;;;;;7.14;56.08;93120.25;5008772;28;20113;-77
2024/01/04 06:23:09;;;;;;;4.72;3.40;;;;;;;7.23;56.26;93121.06;5014670;28;20049;-77
2024/01/04 06:25:35;;;;;;;8.00;4.38;;;;;;;7.24;56.15;93130.53;5015304;28;20041;-76
2024/01/04 06:28:00;;;;;;;12.82;8.02;;;;;;;7.29;55.90;93122.44;4995511;28;20033;-78
2024/01/04 06:30:25;;;;;;;11.98;8.70;;;;;;;7.18;55.81;93107.97;5015082;28;20076;-76
2024/01/04 06:32:52;;;;;;;9.27;5.70;;;;;;;7.41;55.63;93127.94;5006385;28;20427;-76
2024/01/04 06:35:17;;;;;;;12.00;7.30;;;;;;;7.38;55.43;93104.75;4995602;28;20076;-75
2024/01/04 06:37:43;;;;;;;9.65;6.07;;;;;;;7.51;55.73;93135.56;4992140;28;20426;-76
2024/01/04 06:40:10;;;;;;;7.28;4.22;;;;;;;7.37;55.80;93108.47;4998760;28;20095;-76
2024/01/04 06:42:36;;;;;;;7.85;5.72;;;;;;;7.26;56.38;93125.72;5022389;28;20695;-77
2024/01/04 06:45:05;;;;;;;8.43;5.10;;;;;;;7.30;56.53;93118.72;5027010;28;20036;-78
2024/01/04 06:47:31;;;;;;;8.30;3.97;;;;;;;6.96;57.77;93105.41;5011294;28;20033;-77
2024/01/04 06:49:57;;;;;;;6.45;3.60;;;;;;;7.27;57.17;93100.84;4999945;28;20065;-77
2024/01/04 06:52:22;;;;;;;14.45;4.80;;;;;;;7.58;56.59;93109.41;4981705;28;20112;-75
2024/01/04 06:54:48;;;;;;;6.78;3.90;;;;;;;7.66;55.97;93110.50;4992690;28;21034;-75
2024/01/04 06:57:13;;;;;;;5.13;3.58;;;;;;;7.51;56.39;93106.47;4980660;28;20117;-75
2024/01/04 06:59:38;;;;;;;6.88;3.20;;;;;;;7.67;56.48;93117.38;4978896;28;20044;-77
2024/01/04 07:02:06;;;;;;;4.13;3.47;;;;;;;7.83;55.53;93112.41;5003616;28;20506;-77
2024/01/04 07:04:33;;;;;;;5.93;3.78;;;;;;;7.91;55.61;93127.53;5009364;28;20056;-76
2024/01/04 07:06:58;;;;;;;5.03;3.15;;;;;;;7.69;55.90;93126.53;4992243;28;20440;-76
2024/01/04 07:09:24;;;;;;;9.70;4.20;;;;;;;7.77;56.14;93105.72;5002051;28;20028;-77
2024/01/04 07:11:49;;;;;;;6.13;3.95;;;;;;;8.05;55.00;93120.19;5024926;28;20064;-76
2024/01/04 07:14:14;;;;;;;9.38;4.57;;;;;;;8.33;54.75;93133.84;5016673;28;20222;-76
2024/01/04 07:16:44;;;;;;;11.40;6.03;;;;;;;8.36;54.87;93134.00;5010723;28;20518;-76
2024/01/04 07:19:09;;;;;;;12.40;7.45;;;;;;;7.87;55.50;93116.78;5016835;28;20279;-76
2024/01/04 07:21:35;;;;;;;9.50;5.95;;;;;;;8.31;54.99;93144.78;4997244;28;20538;-76
2024/01/04 07:24:00;;;;;;;8.48;3.60;;;;;;;8.08;55.05;93122.97;5015922;28;20561;-75
2024/01/04 07:26:26;;;;;;;6.18;3.75;;;;;;;8.29;55.39;93133.69;5012689;28;20103;-75
2024/01/04 07:28:51;;;;;;;5.22;2.85;;;;;;;7.47;56.87;93124.06;5014203;28;20044;-76
2024/01/04 07:31:17;;;;;;;6.55;3.33;;;;;;;7.97;56.77;93132.31;4996852;28;20063;-75
2024/01/04 07:33:42;;;;;;;5.18;3.10;;;;;;;7.98;56.14;93120.66;5013946;28;20041;-75
2024/01/04 07:36:08;;;;;;;6.00;3.40;;;;;;;8.25;56.06;93105.50;5001157;28;20726;-77
2024/01/04 07:38:34;;;;;;;13.05;9.00;;;;;;;8.16;55.36;93087.00;5013916;28;20510;-77
2024/01/04 07:41:00;;;;;;;8.88;5.70;;;;;;;8.01;56.09;93069.72;5000136;28;20041;-76
2024/01/04 07:43:25;;;;;;;7.47;4.43;;;;;;;8.43;55.58;93089.25;5013817;28;20248;-75
2024/01/04 07:45:50;;;;;;;10.13;4.93;;;;;;;8.42;55.27;93082.38;5013890;28;20039;-75
2024/01/04 07:48:16;;;;;;;6.70;4.45;;;;;;;7.99;55.29;93076.41;5003682;28;20492;-75
2024/01/04 07:50:41;;;;;;;5.97;3.63;;;;;;;8.12;55.50;93070.94;5020200;28;20067;-78
2024/01/04 07:53:07;;;;;;;8.05;4.40;;;;;;;7.92;56.06;93071.63;5031339;28;20067;-78
2024/01/04 07:55:32;;;;;;;6.05;4.60;;;;;;;7.49;57.04;93053.06;5028630;28;20483;-77
2024/01/04 07:57:58;;;;;;;8.40;4.72;;;;;;;7.34;59.05;93072.03;5030393;28;20033;-77
2024/01/04 08:00:23;;;;;;;7.45;4.10;;;;;;;7.44;59.02;93058.50;5028481;28;20604;-77
2024/01/04 08:02:49;;;;;;;7.72;4.03;;;;;;;7.56;58.39;93047.31;5011212;28;20096;-76
2024/01/04 08:05:14;;;;;;;6.40;4.05;;;;;;;7.37;58.07;93028.34;5000623;28;20050;-76
2024/01/04 08:07:43;;;;;;;4.82;3.30;;;;;;;7.84;57.67;93037.19;4995188;28;20519;-76
2024/01/04 08:10:09;;;;;;;7.85;5.07;;;;;;;8.02;56.98;93028.13;5018440;28;20468;-77
2024/01/04 08:12:34;;;;;;;9.63;4.53;;;;;;;7.27;58.97;93040.00;5003211;28;20099;-77
2024/01/04 08:15:00;;;;;;;6.88;4.05;;;;;;;6.91;59.44;93020.97;5004677;28;20052;-77
2024/01/04 08:17:25;;;;;;;10.88;3.70;;;;;;;7.05;60.37;93038.25;5016852;28;20503;-76
2024/01/04 08:19:50;;;;;;;8.80;4.95;;;;;;;7.21;59.41;93017.44;5018185;28;20038;-77
2024/01/04 08:22:16;;;;;;;10.75;3.08;;;;;;;7.57;57.72;93048.88;5013285;28;20064;-76
2024/01/04 08:24:42;;;;;;;5.60;3.22;;;;;;;6.26;61.13;93005.91;5018235;28;20056;-76
2024/01/04 08:27:07;;;;;;;15.85;3.90;;;;;;;6.22;62.09;93034.75;5003064;28;20529;-76
2024/01/04 08:29:32;;;;;;;11.98;5.60;;;;;;;5.98;63.53;93003.41;4998898;28;20248;-76
2024/01/04 08:31:58;;;;;;;12.82;6.10;;;;;;;5.87;65.55;93046.97;5016821;28;20045;-76
2024/01/04 08:34:23;;;;;;;10.88;6.65;;;;;;;5.69;67.07;93050.59;5016406;28;20041;-76
2024/01/04 08:36:49;;;;;;;13.20;4.57;;;;;;;5.53;67.55;93055.44;4979390;28;20659;-76
2024/01/04 08:39:14;;;;;;;18.30;7.93;;;;;;;5.65;67.72;93049.63;5008866;28;20402;-75
2024/01/04 08:41:40;;;;;;;18.38;9.27;;;;;;;5.65;68.32;93033.03;5014105;28;20056;-75
2024/01/04 08:44:05;;;;;;;18.02;11.65;;;;;;;5.72;68.10;93028.13;5002665;28;20068;-76
2024/01/04 08:46:31;;;;;;;16.05;10.40;;;;;;;6.11;66.98;93022.91;5015807;28;20964;-77
2024/01/04 08:48:57;;;;;;;16.42;8.60;;;;;;;6.71;63.78;93048.75;5003103;28;20082;-77
2024/01/04 08:51:22;;;;;;;12.48;8.02;;;;;;;6.19;63.65;93016.13;5017038;28;20433;-76
2024/01/04 08:53:49;;;;;;;13.90;7.03;;;;;;;6.39;63.78;93048.03;5019365;28;20048;-75
2024/01/04 08:56:14;;;;;;;15.63;7.72;;;;;;;6.64;63.94;93048.44;5002583;28;20045;-78
2024/01/04 08:58:40;;;;;;;17.67;9.25;;;;;;;6.15;64.59;93015.13;5014956;28;20060;-76
2024/01/04 09:01:06;;;;;;;14.00;7.90;;;;;;;6.38;63.47;93041.19;5016393;28;20029;-77
2024/01/04 09:03:32;;;;;;;13.43;6.35;;;;;;;5.88;63.84;92981.78;5018414;28;20202;-77
2024/01/04 09:05:57;;;;;;;12.70;7.13;;;;;;;6.19;65.05;93042.50;5002087;28;20636;-76
2024/01/04 09:08:23;;;;;;;13.20;7.07;;;;;;;6.16;64.23;93006.94;5016929;28;20045;-75
2024/01/04 09:10:49;;;;;;;14.80;6.70;;;;;;;6.30;64.01;93022.69;4994108;28;20466;-78
2024/01/04 09:13:14;;;;;;;11.48;6.03;;;;;;;6.38;64.02;93009.50;4988540;28;20025;-76
2024/01/04 09:15:40;;;;;;;7.45;4.75;;;;;;;6.72;62.18;93000.13;4994649;28;20022;-77
2024/01/04 09:18:05;;;;;;;7.63;4.07;;;;;;;7.31;61.29;92998.63;5015826;28;20199;-76
2024/01/04 09:20:30;;;;;;;11.27;4.20;;;;;;;7.66;59.88;92997.50;5013748;28;20371;-76
2024/01/04 09:22:56;;;;;;;14.13;4.88;;;;;;;7.08;60.96;92981.34;5011351;28;20450;-76
2024/01/04 09:25:21;;;;;;;9.43;4.72;;;;;;;7.35;59.65;92977.59;4998983;28;20405;-77
2024/01/04 09:27:47;;;;;;;14.30;5.72;;;;;;;6.46;61.83;92955.13;4998515;28;20116;-77
2024/01/04 09:30:13;;;;;;;9.50;5.82;;;;;;;6.36;62.56;92966.78;5011842;28;20143;-76
2024/01/04 09:32:39;;;;;;;15.55;5.70;;;;;;;6.20;63.59;92943.75;5015868;28;20056;-75
2024/01/04 09:35:05;;;;;;;15.80;6.20;;;;;;;6.45;63.47;92987.16;5005289;28;20045;-76
2024/01/04 09:37:30;;;;;;;14.38;6.40;;;;;;;5.85;64.87;92975.25;5012297;28;20325;-76
2024/01/04 09:39:56;;;;;;;11.18;5.45;;;;;;;5.97;64.63;92966.75;5013972;28;20048;-76
2024/01/04 09:42:23;;;;;;;10.40;5.32;;;;;;;6.08;64.73;92988.38;5017645;28;20128;-75
2024/01/04 09:44:52;;;;;;;12.57;5.97;;;;;;;6.25;64.12;92946.25;5013277;28;20041;-76
2024/01/04 09:47:22;;;;;;;7.38;4.70;;;;;;;6.93;63.73;92998.44;4996784;28;20556;-76
2024/01/04 09:49:48;;;;;;;10.48;5.20;;;;;;;6.93;61.25;92966.72;5005778;28;20049;-75
2024/01/04 09:52:15;;;;;;;11.68;3.97;;;;;;;6.56;62.27;92957.50;5013189;28;20044;-76
2024/01/04 09:54:43;;;;;;;6.20;3.97;;;;;;;7.13;61.09;92960.03;5017442;28;20052;-76
2024/01/04 09:57:08;;;;;;;5.95;3.70;;;;;;;7.23;60.43;92901.56;5014140;28;20049;-77
2024/01/04 09:59:34;;;;;;;2.35;1.35;;;;;;;7.84;54.92;92921.50;4988025;28;20089;-76
2024/01/04 10:02:02;;;;;;;7.00;3.53;;;;;;;7.79;55.93;92923.53;4999936;28;20152;-76
2024/01/04 10:04:28;;;;;;;10.77;3.97;;;;;;;7.66;57.11;92927.91;4988808;28;20041;-76
2024/01/04 10:06:59;;;;;;;9.57;4.88;;;;;;;7.13;59.39;92944.97;4996769;28;20832;-76
2024/01/04 10:09:26;;;;;;;16.83;5.72;;;;;;;7.80;58.87;92952.34;4999142;28;20195;-77
2024/01/04 10:12:07;;;;;;;11.43;4.10;;;;;;;7.71;57.67;92938.34;5013938;28;20037;-75
2024/01/04 10:14:33;;;;;;;7.47;4.13;;;;;;;7.21;60.40;92909.00;5013321;28;20549;-76
2024/01/04 10:16:59;;;;;;;13.02;4.13;;;;;;;7.37;59.12;92862.47;5009694;28;20045;-76
2024/01/04 10:19:26;;;;;;;10.90;5.00;;;;;;;8.10;57.89;92897.56;4997792;28;20045;-76
2024/01/04 10:21:52;;;;;;;8.85;4.07;;;;;;;7.24;59.11;92880.06;5012463;28;20036;-77
2024/01/04 10:24:22;;;;;;;9.00;4.13;;;;;;;7.66;59.04;92891.66;5015144;28;20126;-77
2024/01/04 10:26:56;;;;;;;8.10;4.05;;;;;;;7.59;58.39;92875.47;5015480;28;20041;-77
2024/01/04 10:29:23;;;;;;;10.48;4.47;;;;;;;7.86;58.76;92876.19;5012371;28;20140;-77
2024/01/04 10:32:00;;;;;;;9.77;4.80;;;;;;;8.04;56.73;92840.59;5010726;28;20405;-77
2024/01/04 10:34:26;;;;;;;8.85;4.53;;;;;;;7.87;57.60;92848.63;5013258;28;20120;-74
2024/01/04 10:36:52;;;;;;;12.07;4.60;;;;;;;7.77;57.69;92852.41;5012908;28;20075;-78
2024/01/04 10:39:20;;;;;;;8.60;4.22;;;;;;;7.28;58.49;92811.47;5012192;28;20209;-76
2024/01/04 10:42:01;;;;;;;8.23;4.45;;;;;;;7.51;58.85;92844.53;4991280;28;20351;-75
2024/01/04 10:44:32;;;;;;;8.75;4.78;;;;;;;7.84;57.86;92847.38;5012989;28;20041;-75
2024/01/04 10:46:59;;;;;;;7.85;5.93;;;;;;;7.91;57.00;92809.81;5012068;28;20506;-75
2024/01/04 10:49:25;;;;;;;11.45;5.97;;;;;;;7.93;57.22;92834.88;5009591;28;20048;-77
2024/01/04 10:51:53;;;;;;;11.63;5.78;;;;;;;8.23;57.10;92846.22;5015267;28;20037;-78
2024/01/04 10:54:22;;;;;;;8.43;5.32;;;;;;;8.70;56.37;92830.94;4994520;28;20040;-77
2024/01/04 10:56:47;;;;;;;9.38;5.10;;;;;;;8.72;54.52;92844.63;5012904;28;20388;-77
2024/01/04 10:59:14;;;;;;;15.55;4.90;;;;;;;8.85;54.69;92827.69;5000198;28;20075;-75
2024/01/04 11:01:40;;;;;;;11.68;4.53;;;;;;;8.73;54.05;92787.88;5012097;28;20132;-76
2024/01/04 11:04:06;;;;;;;8.75;3.90;;;;;;;9.17;53.77;92817.44;5012010;28;20446;-76
2024/01/04 11:06:39;;;;;;;7.82;3.95;;;;;;;8.68;53.45;92758.94;5013632;28;20578;-76
2024/01/04 11:09:05;;;;;;;6.38;3.60;;;;;;;8.87;52.30;92782.28;5010888;28;20076;-76
2024/01/04 11:11:32;;;;;;;3.80;2.42;;;;;;;9.21;50.65;92787.28;5015573;28;20148;-76
2024/01/04 11:13:57;;;;;;;8.63;2.85;;;;;;;9.35;51.02;92765.72;5007441;28;20025;-78
2024/01/04 11:16:29;;;;;;;3.65;2.10;;;;;;;9.66;50.38;92792.53;5004844;28;20051;-77
2024/01/04 11:19:17;;;;;;;6.85;4.28;;;;;;;9.37;51.54;92766.97;5009443;28;20041;-78
2024/01/04 11:21:45;;;;;;;3.10;1.00;;;;;;;9.74;48.78;92756.34;4975707;28;20042;-77
2024/01/04 11:24:37;;;;;;;4.28;1.27;;;;;;;10.06;48.89;92776.69;5002250;28;20037;-77
2024/01/04 11:27:04;;;;;;;3.47;1.75;;;;;;;10.24;48.59;92740.03;5010611;28;20059;-76
2024/01/04 11:29:30;;;;;;;4.40;2.38;;;;;;;10.45;47.78;92767.25;4994255;28;20787;-77
2024/01/04 11:31:59;;;;;;;3.83;1.67;;;;;;;10.24;48.15;92748.78;5009766;28;20041;-77
2024/01/04 11:34:25;;;;;;;5.65;1.08;;;;;;;10.15;47.87;92761.41;4995851;28;20041;-77